Time;durP1;ratioP1;P1;durP2;ratioP2;P2;SDS_P1;SDS_P2;PMS_P1;PMS_P2;Temp;Humidity;BMP_temperature;BMP_pressure;BME280_temperature;BME280_humidity;BME280_pressure;Samples;Min_cycle;Max_cycle;Signal;HPM_P1;HPM_P2
2023/07/21 00:00:18;;;;;;;0.40;0.40;;;;;;;12.91;77.53;98177.41;6129849;23;20022;-91
2023/07/21 00:02:49;;;;;;;0.40;0.40;;;;;;;12.83;77.72;98169.03;6126044;23;20032;-90
2023/07/21 00:05:17;;;;;;;0.40;0.40;;;;;;;12.79;78.07;98169.59;6124811;23;20028;-90
2023/07/21 00:07:44;;;;;;;0.40;0.40;;;;;;;12.75;78.44;98167.72;6075273;23;20086;-90
2023/07/21 00:10:11;;;;;;;0.40;0.40;;;;;;;12.73;78.69;98162.59;6124716;23;20369;-89
2023/07/21 00:12:49;;;;;;;0.40;0.40;;;;;;;12.76;78.79;98166.63;6124327;23;20025;-91
2023/07/21 00:15:17;;;;;;;0.40;0.40;;;;;;;12.71;79.03;98164.78;6125232;23;20026;-90
2023/07/21 00:17:49;;;;;;;0.40;0.40;;;;;;;12.68;79.34;98167.22;6125886;23;20364;-89
2023/07/21 00:20:24;;;;;;;0.47;0.47;;;;;;;12.66;79.87;98172.94;6129295;23;20521;-91
2023/07/21 00:22:52;;;;;;;0.40;0.40;;;;;;;12.64;80.05;98169.69;6125241;23;20022;-90
2023/07/21 00:25:19;;;;;;;0.40;0.40;;;;;;;12.60;80.26;98175.94;6125048;23;20356;-90
2023/07/21 00:27:47;;;;;;;0.40;0.40;;;;;;;12.58;80.33;98174.31;6099017;23;20077;-90
2023/07/21 00:30:16;;;;;;;0.40;0.40;;;;;;;12.63;80.28;98181.59;6124555;23;20022;-90
2023/07/21 00:32:44;;;;;;;0.40;0.40;;;;;;;12.60;80.57;98175.94;6099110;23;20026;-90
2023/07/21 00:35:11;;;;;;;0.40;0.40;;;;;;;12.60;80.72;98178.63;6099186;23;20056;-89
2023/07/21 00:37:39;;;;;;;0.40;0.40;;;;;;;12.57;80.76;98180.81;6124999;23;20074;-90
2023/07/21 00:40:15;;;;;;;0.40;0.40;;;;;;;12.60;81.03;98184.06;6098463;23;20733;-89
2023/07/21 00:42:42;;;;;;;0.40;0.40;;;;;;;12.58;81.23;98178.91;6076391;23;20026;-89
2023/07/21 00:45:14;;;;;;;0.40;0.40;;;;;;;12.58;81.36;98176.19;6131196;23;20081;-89
2023/07/21 00:47:42;;;;;;;0.40;0.40;;;;;;;12.57;81.07;98178.09;6114485;23;20113;-91
2023/07/21 00:50:11;;;;;;;0.40;0.40;;;;;;;12.58;81.37;98182.44;6098412;23;20400;-85
2023/07/21 00:52:39;;;;;;;0.40;0.40;;;;;;;12.56;81.82;98187.31;6097859;23;20025;-86
2023/07/21 00:56:10;;;;;;;0.45;0.45;;;;;;;12.48;82.30;98182.50;6126220;23;20386;-90
2023/07/21 00:58:44;;;;;;;0.40;0.40;;;;;;;12.34;82.53;98171.44;5966835;23;20083;-90
2023/07/21 01:01:11;;;;;;;0.50;0.50;;;;;;;12.40;82.94;98185.75;6035790;23;20023;-92
2023/07/21 01:03:39;;;;;;;0.40;0.40;;;;;;;12.34;83.04;98176.03;6036388;23;20051;-90
2023/07/21 01:06:07;;;;;;;0.40;0.40;;;;;;;12.44;83.09;98186.03;6036761;23;20494;-90
2023/07/21 01:08:35;;;;;;;0.50;0.50;;;;;;;12.43;83.00;98192.50;6011824;23;20094;-91
2023/07/21 01:11:02;;;;;;;0.40;0.40;;;;;;;12.41;82.98;98192.78;6035787;23;20058;-91
2023/07/21 01:13:31;;;;;;;0.40;0.40;;;;;;;12.42;83.05;98194.41;6035103;23;20051;-90
2023/07/21 01:16:00;;;;;;;0.50;0.50;;;;;;;12.47;83.07;98197.09;6011655;23;20051;-91
2023/07/21 01:18:27;;;;;;;0.40;0.40;;;;;;;12.53;82.71;98192.47;6013422;23;20023;-91
2023/07/21 01:20:55;;;;;;;0.40;0.40;;;;;;;12.55;82.63;98193.81;6037262;23;20034;-88
2023/07/21 01:23:39;;;;;;;0.40;0.40;;;;;;;12.57;82.68;98197.03;6014491;23;20027;-90
2023/07/21 01:26:06;;;;;;;0.40;0.40;;;;;;;12.52;82.42;98194.38;5988543;23;20408;-90
2023/07/21 01:28:33;;;;;;;0.50;0.50;;;;;;;12.57;82.28;98197.03;5988403;23;20027;-89
2023/07/21 01:31:01;;;;;;;0.40;0.40;;;;;;;12.59;82.27;98199.50;6098983;23;20529;-90
2023/07/21 01:33:29;;;;;;;0.40;0.40;;;;;;;12.63;81.96;98199.72;6099069;23;20549;-90
2023/07/21 01:35:57;;;;;;;0.50;0.50;;;;;;;12.62;81.97;98198.94;6075000;23;20033;-90
2023/07/21 01:38:27;;;;;;;0.50;0.50;;;;;;;12.63;82.18;98205.94;6099385;23;20022;-91
2023/07/21 01:40:54;;;;;;;0.50;0.50;;;;;;;12.62;82.26;98206.25;6075688;23;20026;-88
2023/07/21 01:43:23;;;;;;;0.47;0.47;;;;;;;12.61;82.62;98208.16;6124935;23;20595;-90
2023/07/21 01:45:50;;;;;;;0.40;0.40;;;;;;;12.61;82.53;98210.84;6100458;23;20026;-89
2023/07/21 01:48:24;;;;;;;0.40;0.40;;;;;;;12.57;83.06;98210.59;6099127;23;20085;-90
2023/07/21 01:50:53;;;;;;;0.40;0.40;;;;;;;12.54;82.77;98207.63;6125670;23;20018;-90
2023/07/21 01:53:23;;;;;;;0.40;0.40;;;;;;;12.56;82.81;98206.28;6075590;23;20100;-91
2023/07/21 01:56:34;;;;;;;0.40;0.40;;;;;;;12.62;82.46;98211.66;6101869;23;20105;-91
2023/07/21 01:59:52;;;;;;;0.40;0.40;;;;;;;12.61;82.72;98215.44;6101829;23;20032;-91
2023/07/21 02:02:20;;;;;;;0.40;0.40;;;;;;;12.60;82.58;98216.53;6103357;23;20029;-91
2023/07/21 02:04:51;;;;;;;0.40;0.40;;;;;;;12.60;82.83;98213.81;6081576;23;20030;-90
2023/07/21 02:07:20;;;;;;;0.40;0.40;;;;;;;12.58;82.69;98217.63;6134297;23;20054;-89
2023/07/21 02:09:51;;;;;;;0.40;0.40;;;;;;;12.55;82.57;98209.25;6143501;23;20006;-90
2023/07/21 02:12:22;;;;;;;0.40;0.40;;;;;;;12.52;82.49;98216.00;6125981;23;20005;-89
2023/07/21 02:14:55;;;;;;;0.40;0.40;;;;;;;12.50;82.62;98220.09;6111268;23;20046;-92
2023/07/21 02:17:23;;;;;;;0.50;0.50;;;;;;;12.51;82.70;98213.59;6102525;23;20477;-91
2023/07/21 02:20:10;;;;;;;0.40;0.40;;;;;;;12.50;82.59;98220.88;6092519;23;20029;-92
2023/07/21 02:22:39;;;;;;;0.40;0.40;;;;;;;12.54;82.67;98218.47;6078468;23;20125;-90
2023/07/21 02:25:10;;;;;;;0.50;0.50;;;;;;;12.54;82.96;98219.25;6077537;23;20026;-91
2023/07/21 02:27:38;;;;;;;0.40;0.40;;;;;;;12.54;82.62;98213.84;6102289;23;20026;-92
2023/07/21 02:30:06;;;;;;;0.40;0.40;;;;;;;12.56;82.57;98216.28;6103506;23;20113;-90
2023/07/21 02:32:34;;;;;;;0.40;0.40;;;;;;;12.57;82.70;98213.28;6072952;23;20046;-91
2023/07/21 02:35:01;;;;;;;0.40;0.40;;;;;;;12.62;82.47;98217.06;6071381;23;20413;-91
2023/07/21 02:37:32;;;;;;;0.43;0.43;;;;;;;12.64;82.54;98221.13;6094209;23;20022;-91
2023/07/21 02:40:00;;;;;;;0.40;0.40;;;;;;;12.64;82.80;98217.63;6094573;23;20074;-89
2023/07/21 02:42:29;;;;;;;0.40;0.40;;;;;;;12.61;83.15;98218.97;6071778;23;20032;-92
2023/07/21 02:44:58;;;;;;;0.50;0.50;;;;;;;12.62;83.43;98219.78;6095447;23;20037;-90
2023/07/21 02:47:26;;;;;;;0.40;0.40;;;;;;;12.57;83.78;98212.47;6071090;23;20450;-90
2023/07/21 02:49:53;;;;;;;0.40;0.40;;;;;;;12.57;84.04;98218.69;6047655;23;20170;-91
2023/07/21 02:52:21;;;;;;;0.40;0.40;;;;;;;12.55;84.47;98212.75;6096922;23;20026;-90
2023/07/21 02:54:53;;;;;;;0.40;0.40;;;;;;;12.50;84.60;98207.34;6033532;23;20026;-91
2023/07/21 02:57:20;;;;;;;0.40;0.40;;;;;;;12.52;84.66;98216.00;6101061;23;20121;-90
2023/07/21 02:59:48;;;;;;;0.40;0.40;;;;;;;12.53;84.72;98216.81;6087386;23;20022;-89
2023/07/21 03:02:22;;;;;;;;;;;;;;;12.53;84.70;98211.41;6095254;23;20026;-88
2023/07/21 03:04:51;;;;;;;0.40;0.40;;;;;;;12.53;84.75;98212.25;6115320;23;19921;-91
2023/07/21 03:07:19;;;;;;;0.40;0.40;;;;;;;12.53;84.86;98198.72;6077453;23;20784;-90
2023/07/21 03:09:54;;;;;;;0.40;0.40;;;;;;;12.56;84.81;98206.28;6079248;23;20022;-91
2023/07/21 03:12:25;;;;;;;0.40;0.40;;;;;;;12.64;84.54;98204.06;6101106;23;20260;-91
2023/07/21 03:15:15;;;;;;;0.40;0.40;;;;;;;12.67;84.39;98200.81;6114951;23;20029;-90
2023/07/21 03:17:55;;;;;;;0.40;0.40;;;;;;;12.70;84.27;98200.25;6101493;23;20032;-90
2023/07/21 03:20:23;;;;;;;0.40;0.40;;;;;;;12.74;84.22;98198.63;6080216;23;20081;-90
2023/07/21 03:22:51;;;;;;;0.40;0.40;;;;;;;12.77;84.18;98200.75;6102502;23;20461;-90
2023/07/21 03:25:18;;;;;;;0.40;0.40;;;;;;;12.73;83.97;98189.66;6110040;23;20034;-88
2023/07/21 03:27:46;;;;;;;0.40;0.40;;;;;;;12.85;83.75;98202.06;6145203;23;20060;-90
2023/07/21 03:30:17;;;;;;;0.40;0.40;;;;;;;12.89;83.62;98203.16;6078589;23;20049;-90
2023/07/21 03:32:53;;;;;;;0.50;0.50;;;;;;;12.99;83.29;98203.91;6079946;23;20513;-89
2023/07/21 03:35:22;;;;;;;0.50;0.50;;;;;;;13.08;82.82;98198.69;6102157;23;20028;-89
2023/07/21 03:37:52;;;;;;;0.40;0.40;;;;;;;13.15;82.40;98201.09;6100399;23;20049;-88
2023/07/21 03:40:20;;;;;;;0.40;0.40;;;;;;;13.18;82.19;98201.31;6126179;23;20030;-90
2023/07/21 03:42:47;;;;;;;0.40;0.40;;;;;;;13.23;82.30;98203.19;6133762;23;20033;-89
2023/07/21 03:45:15;;;;;;;0.40;0.40;;;;;;;13.32;82.19;98214.25;6136043;23;20037;-88
2023/07/21 03:47:42;;;;;;;0.50;0.50;;;;;;;13.38;82.18;98216.66;6102015;23;20029;-90
2023/07/21 03:50:10;;;;;;;0.40;0.40;;;;;;;13.37;82.16;98212.34;6101209;23;20100;-90
2023/07/21 03:52:40;;;;;;;0.40;0.40;;;;;;;13.43;82.25;98222.06;6077356;23;20100;-90
2023/07/21 03:55:09;;;;;;;0.50;0.50;;;;;;;13.43;82.07;98224.75;6101106;23;20017;-89
2023/07/21 03:57:36;;;;;;;0.50;0.50;;;;;;;13.47;82.11;98230.44;6077508;23;20049;-90
2023/07/21 04:00:05;;;;;;;0.50;0.50;;;;;;;13.53;82.44;98240.16;6101348;23;20453;-89
2023/07/21 04:02:40;;;;;;;0.40;0.40;;;;;;;13.57;82.74;98229.53;6127274;23;20033;-90
2023/07/21 04:05:08;;;;;;;0.40;0.40;;;;;;;13.67;82.73;98221.31;6076781;23;20026;-89
2023/07/21 04:07:35;;;;;;;0.50;0.50;;;;;;;13.75;82.59;98234.28;6103420;23;20156;-89
2023/07/21 04:10:05;;;;;;;0.50;0.50;;;;;;;13.77;82.88;98234.00;6127440;23;20030;-90
2023/07/21 04:12:33;;;;;;;0.40;0.40;;;;;;;13.79;83.01;98229.91;6076451;23;20030;-88
2023/07/21 04:15:00;;;;;;;0.40;0.40;;;;;;;13.84;83.15;98232.56;6126247;23;20025;-90
2023/07/21 04:17:30;;;;;;;0.50;0.50;;;;;;;13.90;83.30;98229.81;6126010;23;20477;-89
2023/07/21 04:19:58;;;;;;;0.50;0.50;;;;;;;13.98;83.28;98230.03;6099703;23;20030;-90
2023/07/21 04:22:25;;;;;;;0.50;0.50;;;;;;;14.08;83.17;98234.56;6126593;23;20022;-90
2023/07/21 04:24:53;;;;;;;0.50;0.50;;;;;;;14.21;83.01;98236.59;6100027;23;20355;-89
2023/07/21 04:27:28;;;;;;;0.40;0.40;;;;;;;14.32;82.54;98246.22;6053445;23;20026;-89
2023/07/21 04:29:56;;;;;;;0.40;0.40;;;;;;;14.33;82.15;98230.78;6098925;23;20032;-88
2023/07/21 04:32:23;;;;;;;0.40;0.40;;;;;;;14.40;82.15;98233.13;6099486;23;20499;-89
2023/07/21 04:34:52;;;;;;;0.40;0.40;;;;;;;14.51;81.77;98238.16;6050503;23;20022;-87
2023/07/21 04:37:19;;;;;;;0.40;0.40;;;;;;;14.51;81.79;98243.59;6098468;23;20026;-88
2023/07/21 04:39:51;;;;;;;0.40;0.40;;;;;;;14.52;81.75;98238.97;6098008;23;20036;-88
2023/07/21 04:42:19;;;;;;;0.40;0.40;;;;;;;14.54;82.13;98236.81;6051050;23;20097;-89
2023/07/21 04:44:48;;;;;;;0.40;0.40;;;;;;;14.57;82.22;98235.44;6124344;23;20033;-87
2023/07/21 04:47:15;;;;;;;0.40;0.40;;;;;;;14.59;82.24;98233.22;6074791;23;20406;-88
2023/07/21 04:49:56;;;;;;;0.40;0.40;;;;;;;14.70;82.23;98235.53;6099331;23;20029;-88
2023/07/21 04:52:23;;;;;;;0.32;0.32;;;;;;;14.70;81.85;98232.81;6101416;23;20022;-91
2023/07/21 04:54:50;;;;;;;0.40;0.40;;;;;;;14.70;81.86;98223.84;6101190;23;20033;-90
2023/07/21 04:57:18;;;;;;;0.40;0.40;;;;;;;14.72;81.81;98225.19;6099744;23;20073;-91
2023/07/21 04:59:47;;;;;;;0.40;0.40;;;;;;;14.91;81.32;98235.25;6101176;23;20038;-91
2023/07/21 05:02:14;;;;;;;0.50;0.50;;;;;;;15.18;80.74;98238.16;6075079;23;20025;-92
2023/07/21 05:04:41;;;;;;;0.40;0.40;;;;;;;15.22;79.17;98218.53;6129304;23;20022;-90
2023/07/21 05:07:08;;;;;;;0.40;0.40;;;;;;;15.30;78.45;98218.69;6101548;23;20047;-92
2023/07/21 05:09:36;;;;;;;0.40;0.40;;;;;;;15.30;77.73;98226.84;6054966;23;20055;-92
2023/07/21 05:12:10;;;;;;;0.40;0.40;;;;;;;15.51;78.03;98240.94;6102013;23;20046;-92
2023/07/21 05:15:09;;;;;;;0.40;0.40;;;;;;;15.61;76.67;98231.81;6081366;23;20026;-90
2023/07/21 05:17:45;;;;;;;0.40;0.40;;;;;;;15.61;76.49;98224.47;6099932;23;20366;-89
2023/07/21 05:20:31;;;;;;;0.40;0.40;;;;;;;15.65;75.78;98223.88;6101660;23;20026;-88
2023/07/21 05:23:11;;;;;;;0.40;0.40;;;;;;;15.77;75.77;98218.81;6077115;23;20021;-90
2023/07/21 05:25:41;;;;;;;0.43;0.43;;;;;;;16.01;74.57;98214.03;6073448;23;20078;-88
2023/07/21 05:28:09;;;;;;;0.40;0.40;;;;;;;16.25;73.74;98218.50;6123867;23;20018;-89
2023/07/21 05:30:42;;;;;;;0.45;0.45;;;;;;;16.44;72.95;98221.16;6099343;23;20053;-92
2023/07/21 05:33:12;;;;;;;0.50;0.50;;;;;;;16.64;72.10;98212.59;6053902;23;20022;-95
2023/07/21 05:35:39;;;;;;;0.40;0.40;;;;;;;16.78;71.14;98225.41;6076409;23;20260;-90
2023/07/21 05:38:16;;;;;;;0.50;0.50;;;;;;;16.92;70.18;98214.53;6100188;23;20030;-92
2023/07/21 05:40:44;;;;;;;0.40;0.40;;;;;;;17.24;69.38;98211.63;6053294;23;20073;-92
2023/07/21 05:43:11;;;;;;;0.50;0.50;;;;;;;17.57;67.89;98213.31;6078503;23;20334;-92
2023/07/21 05:45:39;;;;;;;0.40;0.40;;;;;;;17.55;65.49;98205.44;6099193;23;20033;-87
2023/07/21 05:48:09;;;;;;;0.40;0.40;;;;;;;17.59;64.44;98208.34;6097759;23;20108;-88
2023/07/21 05:50:43;;;;;;;0.40;0.40;;;;;;;17.62;64.26;98213.19;6101190;23;20026;-85
2023/07/21 05:53:10;;;;;;;0.40;0.40;;;;;;;17.66;64.37;98216.91;6108256;23;20022;-84
2023/07/21 05:55:42;;;;;;;0.40;0.40;;;;;;;17.76;64.39;98214.72;6107224;23;20100;-85
2023/07/21 05:58:18;;;;;;;0.40;0.40;;;;;;;17.65;61.56;98216.13;6087147;23;20033;-86
2023/07/21 06:00:45;;;;;;;0.40;0.40;;;;;;;17.58;62.60;98213.00;6133073;23;20021;-84
2023/07/21 06:03:12;;;;;;;0.40;0.40;;;;;;;17.93;62.38;98213.28;6105478;23;20089;-83
2023/07/21 06:05:40;;;;;;;0.40;0.40;;;;;;;18.26;61.64;98216.50;6107080;23;20402;-86
2023/07/21 06:08:26;;;;;;;0.40;0.40;;;;;;;18.55;60.79;98215.97;6132412;23;20046;-83
2023/07/21 06:11:15;;;;;;;0.50;0.50;;;;;;;18.77;57.38;98203.38;6099629;23;20018;-83
2023/07/21 06:14:00;;;;;;;0.40;0.40;;;;;;;18.85;56.16;98202.59;6098361;23;20458;-82
2023/07/21 06:16:36;;;;;;;0.40;0.40;;;;;;;18.74;54.76;98204.78;6098907;23;20085;-85
2023/07/21 06:19:04;;;;;;;0.50;0.50;;;;;;;18.66;54.84;98204.75;6050113;23;20080;-84
2023/07/21 06:21:31;;;;;;;0.40;0.40;;;;;;;18.60;54.46;98209.56;6099743;23;20026;-84
2023/07/21 06:23:59;;;;;;;0.40;0.40;;;;;;;18.36;54.50;98202.56;6099042;23;20357;-87
2023/07/21 06:26:26;;;;;;;0.40;0.40;;;;;;;18.54;55.09;98206.19;6125288;23;20032;-88
2023/07/21 06:28:54;;;;;;;0.40;0.40;;;;;;;18.64;54.69;98205.09;6075793;23;20022;-85
2023/07/21 06:31:21;;;;;;;0.40;0.40;;;;;;;18.70;55.44;98213.94;6099120;23;20144;-86
2023/07/21 06:34:11;;;;;;;0.40;0.40;;;;;;;18.86;54.71;98197.91;6101268;23;20033;-89
2023/07/21 06:36:47;;;;;;;0.40;0.40;;;;;;;18.84;54.77;98193.59;6077249;23;20032;-87
2023/07/21 06:39:33;;;;;;;0.40;0.40;;;;;;;18.99;54.43;98200.53;6123793;23;20073;-85
2023/07/21 06:42:21;;;;;;;0.40;0.40;;;;;;;19.15;52.45;98206.34;6104138;23;20033;-86
2023/07/21 06:44:59;;;;;;;0.40;0.40;;;;;;;19.13;50.57;98202.31;6074738;23;20026;-84
2023/07/21 06:47:49;;;;;;;0.40;0.40;;;;;;;18.88;50.92;98196.47;6112259;23;20571;-84
2023/07/21 06:50:32;;;;;;;0.30;0.30;;;;;;;18.54;51.09;98208.09;6075195;23;20046;-84
2023/07/21 06:53:01;;;;;;;0.30;0.30;;;;;;;18.38;51.97;98207.69;6121650;23;20026;-83
2023/07/21 06:55:31;;;;;;;0.30;0.30;;;;;;;18.30;53.06;98212.00;6097181;23;20161;-86
2023/07/21 06:57:59;;;;;;;0.38;0.38;;;;;;;18.30;53.21;98213.94;6077444;23;20030;-86
2023/07/21 07:00:30;;;;;;;0.40;0.40;;;;;;;18.37;52.71;98215.09;6129252;23;20104;-89
2023/07/21 07:02:57;;;;;;;0.38;0.38;;;;;;;18.36;53.46;98215.44;6105154;23;20026;-89
2023/07/21 07:05:25;;;;;;;0.40;0.40;;;;;;;18.56;52.21;98219.50;6103222;23;20028;-86
2023/07/21 07:07:54;;;;;;;0.30;0.30;;;;;;;18.77;51.70;98217.03;6125111;23;20029;-89
2023/07/21 07:10:24;;;;;;;0.40;0.40;;;;;;;18.90;51.58;98205.19;6077416;23;20035;-89
2023/07/21 07:12:52;;;;;;;0.40;0.40;;;;;;;18.75;51.85;98213.78;6103943;23;20037;-87
2023/07/21 07:15:21;;;;;;;0.30;0.30;;;;;;;18.63;51.49;98209.75;6102422;23;20046;-85
2023/07/21 07:17:50;;;;;;;0.40;0.40;;;;;;;18.70;50.14;98208.47;6105181;23;20026;-87
2023/07/21 07:20:19;;;;;;;0.40;0.40;;;;;;;18.76;49.77;98209.94;6130293;23;20085;-87
2023/07/21 07:22:46;;;;;;;0.40;0.40;;;;;;;18.94;49.28;98213.53;6137935;23;20021;-88
2023/07/21 07:25:13;;;;;;;0.40;0.40;;;;;;;18.98;49.54;98209.03;6140415;23;20022;-88
2023/07/21 07:27:40;;;;;;;0.40;0.40;;;;;;;18.96;49.11;98203.09;6117834;23;20002;-85
2023/07/21 07:30:33;;;;;;;0.40;0.40;;;;;;;19.03;49.28;98209.69;6110415;23;20094;-86
2023/07/21 07:33:00;;;;;;;0.40;0.40;;;;;;;19.19;48.21;98207.31;6121623;23;20958;-90
2023/07/21 07:35:28;;;;;;;0.40;0.40;;;;;;;19.53;47.25;98210.38;6142515;23;20018;-88
2023/07/21 07:37:56;;;;;;;0.40;0.40;;;;;;;19.65;46.25;98216.81;6135532;23;20006;-87
2023/07/21 07:40:23;;;;;;;0.40;0.40;;;;;;;19.77;46.19;98212.63;6115426;23;20022;-85
2023/07/21 07:42:50;;;;;;;0.40;0.40;;;;;;;19.77;45.49;98196.22;6141476;23;20022;-87
2023/07/21 07:45:17;;;;;;;0.40;0.40;;;;;;;19.75;45.76;98212.97;6138208;23;20266;-88
2023/07/21 07:47:44;;;;;;;0.40;0.40;;;;;;;20.13;45.64;98221.28;6132746;23;20033;-87
2023/07/21 07:50:11;;;;;;;0.40;0.40;;;;;;;20.18;44.52;98214.00;6082277;23;20037;-87
2023/07/21 07:52:42;;;;;;;0.50;0.50;;;;;;;20.25;44.49;98215.09;6103383;23;20112;-87
2023/07/21 07:55:10;;;;;;;0.50;0.50;;;;;;;20.44;44.68;98213.91;6076770;23;20358;-88
2023/07/21 07:57:37;;;;;;;0.40;0.40;;;;;;;20.56;44.91;98222.28;6099902;23;20472;-87
2023/07/21 08:00:08;;;;;;;0.40;0.40;;;;;;;20.36;45.66;98218.28;6099402;23;20026;-88
2023/07/21 08:02:37;;;;;;;0.40;0.40;;;;;;;20.05;46.38;98222.09;6099855;23;20405;-88
2023/07/21 08:05:05;;;;;;;0.40;0.40;;;;;;;19.93;46.22;98219.22;6126019;23;20033;-88
2023/07/21 08:07:32;;;;;;;0.40;0.40;;;;;;;19.93;46.38;98219.22;6099245;23;20481;-88
2023/07/21 08:10:00;;;;;;;0.50;0.50;;;;;;;20.40;45.02;98215.69;6125631;23;20036;-88
2023/07/21 08:12:29;;;;;;;0.30;0.30;;;;;;;20.59;43.78;98223.56;6075747;23;20057;-88
2023/07/21 08:14:56;;;;;;;0.40;0.40;;;;;;;20.83;44.12;98218.25;6124465;23;20033;-87
2023/07/21 08:17:23;;;;;;;0.40;0.40;;;;;;;21.20;43.09;98211.09;6099286;23;20021;-87
2023/07/21 08:19:55;;;;;;;0.40;0.40;;;;;;;21.15;42.81;98224.22;6105040;23;20026;-88
2023/07/21 08:22:22;;;;;;;0.50;0.50;;;;;;;20.89;42.15;98221.59;6127904;23;20524;-87
2023/07/21 08:24:51;;;;;;;0.50;0.50;;;;;;;21.08;41.92;98224.72;6125583;23;20022;-88
2023/07/21 08:27:20;;;;;;;0.40;0.40;;;;;;;21.05;41.46;98214.44;6099628;23;20022;-88
2023/07/21 08:29:47;;;;;;;0.60;0.60;;;;;;;21.13;41.08;98230.00;6138324;23;20033;-88
2023/07/21 08:32:14;;;;;;;0.50;0.50;;;;;;;21.19;40.78;98212.25;6121869;23;20018;-86
2023/07/21 08:34:41;;;;;;;0.50;0.50;;;;;;;21.47;40.22;98232.88;6136672;23;20028;-88
2023/07/21 08:37:08;;;;;;;0.50;0.50;;;;;;;21.82;40.77;98227.88;6124611;23;20394;-87
2023/07/21 08:40:01;;;;;;;0.60;0.60;;;;;;;22.58;40.01;98229.34;6128024;23;20025;-87
2023/07/21 08:42:30;;;;;;;0.30;0.30;;;;;;;23.05;37.55;98217.91;6106917;23;20030;-88
2023/07/21 08:44:58;;;;;;;0.30;0.30;;;;;;;21.86;38.01;98220.59;6105088;23;20093;-88
2023/07/21 08:47:25;;;;;;;0.30;0.30;;;;;;;21.02;38.88;98236.25;6101238;23;20025;-87
2023/07/21 08:49:52;;;;;;;0.30;0.30;;;;;;;20.39;40.08;98217.63;6124175;23;20022;-88
2023/07/21 08:52:19;;;;;;;0.50;0.50;;;;;;;21.12;38.95;98228.41;6124445;23;20595;-86
2023/07/21 08:54:46;;;;;;;0.30;0.30;;;;;;;21.28;38.58;98236.06;6131899;23;20022;-87
2023/07/21 08:57:14;;;;;;;0.30;0.30;;;;;;;20.66;39.28;98232.88;6135682;23;20021;-89
2023/07/21 08:59:41;;;;;;;0.50;0.50;;;;;;;20.83;39.81;98228.44;6123866;23;20068;-87
2023/07/21 09:02:08;;;;;;;0.50;0.50;;;;;;;21.67;38.83;98232.06;6074199;23;20028;-88
2023/07/21 09:04:36;;;;;;;0.30;0.30;;;;;;;21.17;39.08;98230.16;6075290;23;20026;-87
2023/07/21 09:07:03;;;;;;;0.60;0.60;;;;;;;21.54;38.18;98238.63;6099393;23;20049;-87
2023/07/21 09:09:31;;;;;;;0.60;0.60;;;;;;;22.19;36.22;98225.25;6074580;23;20030;-87
2023/07/21 09:12:08;;;;;;;0.60;0.60;;;;;;;23.06;35.40;98229.72;6097982;23;20022;-85
2023/07/21 09:14:36;;;;;;;0.60;0.60;;;;;;;23.67;34.46;98239.78;6124106;23;20025;-89
2023/07/21 09:17:07;;;;;;;0.60;0.60;;;;;;;24.19;33.00;98227.84;6124092;23;20032;-88
2023/07/21 09:19:36;;;;;;;0.60;0.60;;;;;;;24.73;32.46;98226.47;6124187;23;20057;-88
2023/07/21 09:22:03;;;;;;;0.30;0.30;;;;;;;23.23;33.36;98232.22;6098394;23;20073;-87
2023/07/21 09:24:31;;;;;;;0.60;0.60;;;;;;;23.53;33.82;98229.16;6123635;23;20102;-87
2023/07/21 09:27:12;;;;;;;0.60;0.60;;;;;;;24.35;32.46;98236.13;6123634;23;20465;-89
2023/07/21 09:29:40;;;;;;;0.38;0.38;;;;;;;24.29;32.47;98234.81;6062664;23;20037;-86
2023/07/21 09:32:14;;;;;;;0.60;0.60;;;;;;;24.63;31.97;98241.59;6038854;23;20053;-87
2023/07/21 09:35:01;;;;;;;0.60;0.60;;;;;;;25.02;31.55;98239.81;6045103;23;20027;-88
2023/07/21 09:37:34;;;;;;;0.60;0.60;;;;;;;25.65;31.05;98229.72;6026418;23;20027;-87
2023/07/21 09:40:05;;;;;;;0.40;0.40;;;;;;;25.99;29.47;98239.13;6068660;23;20053;-87
2023/07/21 09:42:32;;;;;;;0.20;0.20;;;;;;;24.48;31.06;98229.41;6065070;23;20023;-89
2023/07/21 09:44:59;;;;;;;0.55;0.55;;;;;;;24.53;30.15;98237.41;6064976;23;20030;-87
2023/07/21 09:47:27;;;;;;;0.50;0.50;;;;;;;24.91;29.41;98232.41;6039869;23;20029;-89
2023/07/21 09:49:55;;;;;;;0.20;0.20;;;;;;;23.92;30.70;98230.28;6040977;23;20027;-89
2023/07/21 09:52:23;;;;;;;0.50;0.50;;;;;;;24.20;32.25;98234.97;6062591;23;20415;-86
2023/07/21 09:54:56;;;;;;;0.50;0.50;;;;;;;25.32;29.54;98231.03;6055395;23;20122;-87
2023/07/21 09:57:23;;;;;;;0.50;0.50;;;;;;;26.00;28.38;98235.19;6062575;23;20068;-87
2023/07/21 10:00:07;;;;;;;0.57;0.57;;;;;;;25.52;28.03;98232.66;6062304;23;20046;-87
2023/07/21 10:02:45;;;;;;;0.60;0.60;;;;;;;25.30;28.50;98227.84;6062927;23;20030;-86
2023/07/21 10:05:13;;;;;;;0.50;0.50;;;;;;;25.27;29.70;98237.63;6062440;23;20354;-83
2023/07/21 10:07:43;;;;;;;0.50;0.50;;;;;;;25.03;29.24;98235.06;6079366;23;20038;-82
2023/07/21 10:10:11;;;;;;;0.52;0.52;;;;;;;25.68;29.36;98234.56;6097621;23;20393;-85
2023/07/21 10:12:51;;;;;;;0.60;0.60;;;;;;;26.61;28.55;98225.25;6124541;23;20030;-85
2023/07/21 10:15:21;;;;;;;0.50;0.50;;;;;;;27.20;27.83;98232.13;6098307;23;20026;-84
2023/07/21 10:17:56;;;;;;;0.50;0.50;;;;;;;27.36;26.87;98225.63;6073656;23;20028;-84
2023/07/21 10:20:46;;;;;;;0.20;0.20;;;;;;;26.21;28.46;98245.88;6123120;23;20360;-84
2023/07/21 10:23:15;;;;;;;0.20;0.20;;;;;;;24.10;32.09;98233.53;6073378;23;20041;-88
2023/07/21 10:25:51;;;;;;;0.43;0.43;;;;;;;24.23;32.65;98226.81;6097812;23;20102;-84
2023/07/21 10:28:44;;;;;;;0.60;0.60;;;;;;;25.39;30.82;98217.34;6123004;23;20077;-81
2023/07/21 10:31:20;;;;;;;0.60;0.60;;;;;;;26.39;29.71;98224.06;6122813;23;20030;-85
2023/07/21 10:34:07;;;;;;;0.50;0.50;;;;;;;26.82;28.73;98224.03;6123356;23;20022;-83
2023/07/21 10:36:53;;;;;;;0.47;0.47;;;;;;;26.34;28.70;98219.63;6124225;23;20033;-89
2023/07/21 10:39:23;;;;;;;0.30;0.30;;;;;;;24.93;31.38;98217.09;6077025;23;20026;-85
2023/07/21 10:42:03;;;;;;;0.25;0.25;;;;;;;24.18;32.45;98216.03;6074235;23;20026;-85
2023/07/21 10:44:35;;;;;;;0.40;0.40;;;;;;;23.97;32.63;98224.50;6123744;23;20126;-84
2023/07/21 10:47:05;;;;;;;0.60;0.60;;;;;;;25.13;31.50;98208.88;6123850;23;20029;-87
2023/07/21 10:49:33;;;;;;;0.60;0.60;;;;;;;26.35;30.37;98217.66;6074041;23;20525;-88
2023/07/21 10:52:01;;;;;;;0.60;0.60;;;;;;;26.54;30.10;98223.19;6074388;23;20085;-88
2023/07/21 10:54:28;;;;;;;0.60;0.60;;;;;;;26.41;30.50;98223.69;6098022;23;20335;-88
2023/07/21 10:56:55;;;;;;;0.60;0.60;;;;;;;27.17;30.00;98230.09;6128746;23;20026;-85
2023/07/21 10:59:23;;;;;;;0.60;0.60;;;;;;;26.64;30.09;98226.47;6098051;23;20025;-83
2023/07/21 11:01:53;;;;;;;0.60;0.60;;;;;;;26.44;30.30;98231.28;6098260;23;20057;-83
2023/07/21 11:04:21;;;;;;;0.60;0.60;;;;;;;26.96;29.58;98229.75;6123850;23;20022;-90
2023/07/21 11:06:51;;;;;;;0.70;0.70;;;;;;;27.86;28.63;98213.19;6075179;23;20105;-85
2023/07/21 13:29:56;;;;;;;0.60;0.60;;;;;;;29.94;25.33;98233.44;5131112;27;20138;-83
2023/07/21 13:32:23;;;;;;;0.50;0.50;;;;;;;31.25;24.14;98236.72;5096240;28;20048;-84
2023/07/21 13:34:50;;;;;;;0.50;0.50;;;;;;;30.84;22.92;98242.72;5117211;28;20051;-83
2023/07/21 13:37:17;;;;;;;0.57;0.57;;;;;;;30.17;23.43;98231.09;5100770;28;20047;-86
2023/07/21 13:39:44;;;;;;;0.50;0.50;;;;;;;30.17;23.80;98235.88;5099419;28;20055;-84
2023/07/21 13:42:13;;;;;;;0.50;0.50;;;;;;;30.10;23.66;98238.63;5122282;28;20050;-85
2023/07/21 13:44:40;;;;;;;0.50;0.50;;;;;;;30.45;23.75;98207.31;5128114;28;20054;-86
2023/07/21 13:47:07;;;;;;;0.50;0.50;;;;;;;31.25;23.30;98218.00;5096803;28;20180;-87
2023/07/21 13:50:00;;;;;;;0.50;0.50;;;;;;;31.32;23.36;98242.25;5058866;28;20059;-88
2023/07/21 13:52:28;;;;;;;0.40;0.40;;;;;;;31.68;23.00;98236.63;5123278;28;20044;-89
2023/07/21 13:54:56;;;;;;;0.50;0.50;;;;;;;32.69;22.25;98236.84;5108275;28;20075;-88
2023/07/21 13:57:23;;;;;;;0.40;0.40;;;;;;;32.91;21.62;98231.88;5129513;28;20032;-89
2023/07/21 13:59:50;;;;;;;0.40;0.40;;;;;;;33.49;21.73;98232.13;5113570;28;20052;-90
2023/07/21 14:02:18;;;;;;;0.40;0.40;;;;;;;33.77;21.33;98231.00;5108275;28;20047;-89
2023/07/21 14:04:45;;;;;;;0.40;0.40;;;;;;;33.40;21.45;98238.22;5109930;28;20078;-91
2023/07/21 14:07:13;;;;;;;0.40;0.40;;;;;;;33.03;21.65;98229.41;5109601;28;20574;-91
2023/07/21 14:09:41;;;;;;;0.40;0.40;;;;;;;33.19;21.76;98237.22;5090644;28;20056;-90
2023/07/21 14:12:10;;;;;;;0.40;0.40;;;;;;;32.88;21.61;98233.50;5112241;28;20047;-91